createdAt,value
2018-09-26T00:00:23.199Z,0
2018-09-26T00:01:04.355Z,0
2018-09-26T00:01:45.084Z,0
2018-09-26T00:02:25.419Z,0
2018-09-26T00:03:06.077Z,0
2018-09-26T00:03:46.328Z,0
2018-09-26T00:04:26.717Z,0
2018-09-26T00:05:07.166Z,0
2018-09-26T00:07:25.046Z,0
2018-09-26T00:08:05.472Z,0
2018-09-26T00:08:45.901Z,0
2018-09-26T00:09:26.794Z,0
2018-09-26T00:10:07.581Z,0
2018-09-26T00:10:47.524Z,0
2018-09-26T00:11:27.923Z,0
2018-09-26T00:12:08.337Z,0
2018-09-26T00:12:48.881Z,0
2018-09-26T00:13:29.285Z,0
2018-09-26T00:14:10.016Z,0
2018-09-26T00:14:50.202Z,0
2018-09-26T00:15:30.609Z,0
2018-09-26T00:16:11.014Z,0
2018-09-26T00:16:51.411Z,0
2018-09-26T00:17:31.881Z,0
2018-09-26T00:18:12.232Z,0
2018-09-26T00:18:52.700Z,0
2018-09-26T00:19:33.473Z,0
2018-09-26T00:20:13.879Z,0
2018-09-26T00:20:54.316Z,0
2018-09-26T00:21:34.764Z,0
2018-09-26T00:22:15.192Z,0
2018-09-26T00:22:56.406Z,0
2018-09-26T00:23:37.009Z,0
2018-09-26T00:24:18.780Z,0
2018-09-26T00:24:58.577Z,0
2018-09-26T00:25:39.209Z,0
2018-09-26T00:26:19.598Z,0
2018-09-26T00:26:59.965Z,0
2018-09-26T00:27:40.350Z,0
2018-09-26T00:28:20.744Z,0
2018-09-26T00:29:01.394Z,0
2018-09-26T00:29:41.688Z,0
2018-09-26T00:30:22.050Z,0
2018-09-26T00:31:02.480Z,0
2018-09-26T00:31:42.951Z,0
2018-09-26T00:32:23.295Z,0
2018-09-26T00:33:03.717Z,0
2018-09-26T00:33:44.162Z,0
2018-09-26T00:34:24.980Z,0
2018-09-26T00:35:05.445Z,0
2018-09-26T00:35:45.831Z,0
2018-09-26T00:36:26.233Z,0
2018-09-26T00:37:06.631Z,0
2018-09-26T00:37:47.042Z,0
2018-09-26T00:41:03.895Z,0
2018-09-26T00:41:44.242Z,0
2018-09-26T00:42:24.631Z,0
2018-09-26T00:43:05.058Z,0
2018-09-26T00:43:45.504Z,0
2018-09-26T00:44:25.923Z,0
2018-09-26T00:45:06.319Z,0
2018-09-26T00:45:46.756Z,0
2018-09-26T00:46:27.171Z,0
2018-09-26T00:47:07.577Z,0
2018-09-26T00:47:47.967Z,0
2018-09-26T00:50:06.627Z,0
2018-09-26T00:50:46.989Z,0
2018-09-26T00:51:27.433Z,0
2018-09-26T00:52:07.803Z,0
2018-09-26T00:52:48.190Z,0
2018-09-26T00:53:28.588Z,0
2018-09-26T00:54:09.019Z,0
2018-09-26T00:54:49.376Z,0
2018-09-26T00:55:29.796Z,0
2018-09-26T00:56:10.206Z,0
2018-09-26T00:56:50.672Z,0
2018-09-26T00:57:31.009Z,0
2018-09-26T00:58:11.395Z,0
2018-09-26T00:58:51.842Z,0
2018-09-26T00:59:32.231Z,0
2018-09-26T01:00:12.815Z,0
2018-09-26T01:00:53.628Z,0
2018-09-26T01:01:34.239Z,0
2018-09-26T01:02:15.434Z,0
2018-09-26T01:02:55.082Z,0
2018-09-26T01:03:35.444Z,0
2018-09-26T01:04:16.220Z,0
2018-09-26T01:04:56.475Z,0
2018-09-26T01:05:36.891Z,0
2018-09-26T01:06:17.354Z,0
2018-09-26T01:06:57.809Z,0
2018-09-26T01:07:38.243Z,0
2018-09-26T01:08:18.624Z,0
2018-09-26T01:08:59.035Z,0
2018-09-26T01:09:39.698Z,0
2018-09-26T01:10:20.256Z,0
2018-09-26T01:11:00.616Z,0
2018-09-26T01:11:40.980Z,0
2018-09-26T01:12:21.426Z,0
2018-09-26T01:13:01.906Z,0
2018-09-26T01:13:42.348Z,0
2018-09-26T01:14:22.681Z,0
2018-09-26T01:15:03.052Z,0
2018-09-26T01:15:43.406Z,0
2018-09-26T01:16:23.873Z,0
2018-09-26T01:17:04.274Z,0
2018-09-26T01:17:44.653Z,0
2018-09-26T01:18:25.030Z,0
2018-09-26T01:19:05.401Z,0
2018-09-26T01:19:45.863Z,0
2018-09-26T01:20:26.209Z,0
2018-09-26T01:21:06.627Z,0
2018-09-26T01:21:47.047Z,0
2018-09-26T01:22:27.433Z,0
2018-09-26T01:23:07.827Z,0
2018-09-26T01:23:48.246Z,0
2018-09-26T01:24:28.621Z,0
2018-09-26T01:25:09.038Z,0
2018-09-26T01:25:49.448Z,0
2018-09-26T01:26:29.827Z,0
2018-09-26T01:28:43.507Z,0
2018-09-26T01:29:23.889Z,0
2018-09-26T01:30:04.317Z,0
2018-09-26T01:30:44.715Z,0
2018-09-26T01:31:25.079Z,0
2018-09-26T01:32:05.491Z,0
2018-09-26T01:32:45.906Z,0
2018-09-26T01:33:26.285Z,0
2018-09-26T01:34:06.686Z,0
2018-09-26T01:34:47.105Z,0
2018-09-26T01:35:27.468Z,0
2018-09-26T01:36:07.853Z,0
2018-09-26T01:36:48.249Z,0
2018-09-26T01:37:28.676Z,0
2018-09-26T01:38:09.042Z,0
2018-09-26T01:38:49.438Z,0
2018-09-26T01:39:29.837Z,0
2018-09-26T01:40:10.239Z,0
2018-09-26T01:40:50.599Z,0
2018-09-26T01:41:31.107Z,0
2018-09-26T01:42:11.391Z,0
2018-09-26T01:42:51.867Z,0
2018-09-26T01:43:32.261Z,0
2018-09-26T01:44:12.695Z,0
2018-09-26T01:44:53.146Z,0
2018-09-26T01:45:33.515Z,0
2018-09-26T01:46:13.882Z,0
2018-09-26T01:46:54.299Z,0
2018-09-26T01:47:34.661Z,0
2018-09-26T01:48:15.047Z,0
2018-09-26T01:48:55.484Z,0
2018-09-26T01:49:35.860Z,0
2018-09-26T01:50:16.271Z,0
2018-09-26T01:50:56.669Z,0
2018-09-26T01:51:37.075Z,0
2018-09-26T01:52:17.528Z,0
2018-09-26T01:52:57.923Z,0
2018-09-26T01:53:38.353Z,0
2018-09-26T01:54:18.733Z,0
2018-09-26T01:54:59.231Z,0
2018-09-26T01:55:39.639Z,0
2018-09-26T01:56:20.005Z,0
2018-09-26T01:57:00.449Z,0
2018-09-26T01:57:40.822Z,0
2018-09-26T01:58:21.327Z,0
2018-09-26T01:59:01.709Z,0
2018-09-26T01:59:42.098Z,0
2018-09-26T02:00:22.517Z,0
2018-09-26T02:01:02.944Z,0
2018-09-26T02:01:43.377Z,0
2018-09-26T02:02:23.828Z,0
2018-09-26T02:03:04.212Z,0
2018-09-26T02:03:44.624Z,0
2018-09-26T02:04:25.053Z,0
2018-09-26T02:05:05.437Z,0
2018-09-26T02:07:19.953Z,0
2018-09-26T02:08:00.396Z,0
2018-09-26T02:08:40.738Z,0
2018-09-26T02:09:21.140Z,0
2018-09-26T02:10:01.561Z,0
2018-09-26T02:10:41.987Z,0
2018-09-26T02:11:22.344Z,0
2018-09-26T02:12:02.694Z,0
2018-09-26T02:12:43.089Z,0
2018-09-26T02:13:23.527Z,0
2018-09-26T02:14:03.900Z,0
2018-09-26T02:14:44.331Z,0
2018-09-26T02:15:24.730Z,0
2018-09-26T02:16:05.108Z,0
2018-09-26T02:16:45.501Z,0
2018-09-26T02:17:25.876Z,0
2018-09-26T02:18:06.292Z,0
2018-09-26T02:18:46.701Z,0
2018-09-26T02:19:27.148Z,0
2018-09-26T02:20:07.495Z,0
2018-09-26T02:20:47.863Z,0
2018-09-26T02:21:28.269Z,0
2018-09-26T02:22:08.639Z,0
2018-09-26T02:22:49.014Z,0
2018-09-26T02:23:29.483Z,0
2018-09-26T02:24:09.889Z,0
2018-09-26T02:24:50.322Z,0
2018-09-26T02:25:30.730Z,0
2018-09-26T02:30:16.223Z,0
2018-09-26T02:30:56.652Z,0
2018-09-26T02:31:37.004Z,0
2018-09-26T02:32:17.399Z,0
2018-09-26T02:32:57.786Z,0
2018-09-26T02:33:38.204Z,0
2018-09-26T02:34:18.623Z,0
2018-09-26T02:34:59.016Z,0
2018-09-26T02:35:39.432Z,0
2018-09-26T02:36:19.865Z,0
2018-09-26T02:37:00.210Z,0
2018-09-26T02:37:40.604Z,0
2018-09-26T02:38:21.012Z,0
2018-09-26T02:39:01.394Z,0
2018-09-26T02:39:41.768Z,0
2018-09-26T02:40:22.188Z,0
2018-09-26T02:41:02.606Z,0
2018-09-26T02:41:42.966Z,0
2018-09-26T02:42:23.370Z,0
2018-09-26T02:43:03.800Z,0
2018-09-26T02:43:44.184Z,0
2018-09-26T02:44:24.544Z,0
2018-09-26T02:45:04.945Z,0
2018-09-26T02:45:45.405Z,0
2018-09-26T02:46:25.734Z,0
2018-09-26T02:47:06.151Z,0
2018-09-26T02:47:46.569Z,0
2018-09-26T02:48:26.953Z,0
2018-09-26T02:49:07.368Z,0
2018-09-26T02:49:47.740Z,0
2018-09-26T02:50:28.130Z,0
2018-09-26T02:51:08.536Z,0
2018-09-26T02:51:48.922Z,0
2018-09-26T02:52:32.235Z,0
2018-09-26T02:53:12.645Z,0
2018-09-26T02:53:53.065Z,0
2018-09-26T02:54:33.453Z,0
2018-09-26T02:57:02.166Z,0
2018-09-26T02:57:42.541Z,0
2018-09-26T02:58:22.960Z,0
2018-09-26T02:59:03.364Z,0
2018-09-26T02:59:43.885Z,0
2018-09-26T03:00:24.153Z,0
2018-09-26T03:01:04.544Z,0
2018-09-26T03:01:44.941Z,0
2018-09-26T03:02:25.403Z,0
2018-09-26T03:03:05.806Z,0
2018-09-26T03:06:22.816Z,0
2018-09-26T03:07:02.871Z,0
2018-09-26T03:07:43.269Z,0
2018-09-26T03:08:23.701Z,0
2018-09-26T03:09:04.114Z,0
2018-09-26T03:09:44.492Z,0
2018-09-26T03:10:24.914Z,0
2018-09-26T03:11:05.316Z,0
2018-09-26T03:11:45.737Z,0
2018-09-26T03:12:26.131Z,0
2018-09-26T03:13:06.542Z,0
2018-09-26T03:13:46.946Z,0
2018-09-26T03:14:27.338Z,0
2018-09-26T03:15:07.771Z,0
2018-09-26T03:15:48.163Z,0
2018-09-26T03:16:28.559Z,0
2018-09-26T03:17:09.001Z,0
2018-09-26T03:17:49.359Z,0
2018-09-26T03:18:29.736Z,0
2018-09-26T03:19:10.135Z,0
2018-09-26T03:19:50.502Z,0
2018-09-26T03:20:30.969Z,0
2018-09-26T03:21:11.295Z,0
2018-09-26T03:21:51.732Z,0
2018-09-26T03:22:32.145Z,0
2018-09-26T03:23:12.524Z,0
2018-09-26T03:23:52.976Z,0
2018-09-26T03:24:33.355Z,0
2018-09-26T03:25:13.725Z,0
2018-09-26T03:25:54.111Z,0
2018-09-26T03:26:34.550Z,0
2018-09-26T03:27:14.952Z,0
2018-09-26T03:27:55.357Z,0
2018-09-26T03:28:35.752Z,0
2018-09-26T03:29:16.116Z,0
2018-09-26T03:29:56.534Z,0
2018-09-26T03:30:36.963Z,0
2018-09-26T03:31:17.357Z,0
2018-09-26T03:31:57.693Z,0
2018-09-26T03:32:38.148Z,0
2018-09-26T03:33:18.506Z,0
2018-09-26T03:33:58.892Z,0
2018-09-26T03:34:39.266Z,0
2018-09-26T03:38:59.669Z,0
2018-09-26T03:39:40.059Z,0
2018-09-26T03:40:20.460Z,0
2018-09-26T03:41:00.845Z,0
2018-09-26T03:41:41.330Z,0
2018-09-26T03:42:21.682Z,0
2018-09-26T03:45:02.441Z,0
2018-09-26T03:45:40.748Z,0
2018-09-26T03:46:21.184Z,0
2018-09-26T03:47:01.557Z,0
2018-09-26T03:47:41.946Z,0
2018-09-26T03:48:22.364Z,0
2018-09-26T03:49:02.786Z,0
2018-09-26T03:49:43.231Z,0
2018-09-26T03:50:23.601Z,0
2018-09-26T03:52:56.395Z,0
2018-09-26T03:53:36.870Z,0
2018-09-26T03:54:17.251Z,0
2018-09-26T03:54:57.657Z,0
2018-09-26T03:55:38.085Z,0
2018-09-26T03:56:18.492Z,0
2018-09-26T03:57:00.604Z,0
2018-09-26T03:57:40.979Z,0
2018-09-26T03:58:21.430Z,0
2018-09-26T04:00:59.391Z,0
2018-09-26T04:01:39.776Z,0
2018-09-26T04:02:20.154Z,0
2018-09-26T04:04:35.283Z,0
2018-09-26T04:05:15.668Z,0
2018-09-26T04:05:56.064Z,0
2018-09-26T04:06:36.464Z,0
2018-09-26T04:07:16.845Z,0
2018-09-26T04:07:57.240Z,0
2018-09-26T04:08:37.698Z,0
2018-09-26T04:09:18.126Z,0
2018-09-26T04:09:58.471Z,0
2018-09-26T04:10:38.929Z,0
2018-09-26T04:11:19.307Z,0
2018-09-26T04:11:59.662Z,0
2018-09-26T04:12:40.143Z,0
2018-09-26T04:13:20.455Z,0
2018-09-26T04:14:00.843Z,0
2018-09-26T04:14:41.260Z,0
2018-09-26T04:15:21.660Z,0
2018-09-26T04:16:02.061Z,0
2018-09-26T04:16:42.469Z,0
2018-09-26T04:17:22.874Z,0
2018-09-26T04:19:36.219Z,0
2018-09-26T04:20:16.772Z,0
2018-09-26T04:20:57.161Z,0
2018-09-26T04:21:37.564Z,0
2018-09-26T04:23:56.517Z,0
2018-09-26T04:24:36.968Z,0
2018-09-26T04:25:17.346Z,0
2018-09-26T04:25:57.751Z,0
2018-09-26T04:26:38.258Z,0
2018-09-26T05:07:28.827Z,0
2018-09-26T05:08:21.896Z,0
2018-09-26T05:09:13.858Z,0
2018-09-26T05:09:59.134Z,0
2018-09-26T05:10:39.485Z,0
2018-09-26T05:11:19.855Z,0
2018-09-26T05:12:00.243Z,0
2018-09-26T05:12:40.677Z,0
2018-09-26T05:13:21.134Z,0
2018-09-26T05:14:01.497Z,0
2018-09-26T05:14:41.945Z,0
2018-09-26T05:15:22.359Z,0
2018-09-26T05:16:02.816Z,0
2018-09-26T05:16:43.150Z,0
2018-09-26T05:17:23.613Z,0
2018-09-26T05:18:04.036Z,0
2018-09-26T05:18:44.443Z,0
2018-09-26T05:19:24.824Z,0
2018-09-26T05:20:05.210Z,0
2018-09-26T05:20:45.624Z,0
2018-09-26T05:21:26.022Z,0
2018-09-26T05:22:06.407Z,0
2018-09-26T05:22:46.854Z,0
2018-09-26T05:23:27.225Z,0
2018-09-26T05:24:07.670Z,0
2018-09-26T05:24:48.060Z,0
2018-09-26T05:25:28.519Z,0
2018-09-26T05:26:08.874Z,0
2018-09-26T05:26:49.304Z,0
2018-09-26T05:27:29.690Z,0
2018-09-26T05:28:10.053Z,0
2018-09-26T05:28:50.444Z,0
2018-09-26T05:29:30.860Z,0
2018-09-26T05:30:11.311Z,0
2018-09-26T05:30:51.687Z,0
2018-09-26T05:31:32.105Z,0
2018-09-26T05:32:12.538Z,0
2018-09-26T05:32:52.866Z,0
2018-09-26T05:33:33.300Z,0
2018-09-26T05:34:13.676Z,0
2018-09-26T05:34:54.100Z,0
2018-09-26T05:35:34.465Z,0
2018-09-26T05:36:14.843Z,0
2018-09-26T05:36:55.244Z,0
2018-09-26T05:37:35.707Z,0
2018-09-26T05:38:16.148Z,0
2018-09-26T05:38:56.560Z,0
2018-09-26T05:39:36.963Z,0
2018-09-26T05:40:17.322Z,0
2018-09-26T05:40:57.792Z,0
2018-09-26T05:41:38.257Z,0
2018-09-26T05:42:18.670Z,0
2018-09-26T05:42:59.035Z,0
2018-09-26T05:43:39.465Z,5
2018-09-26T05:44:20.263Z,5
2018-09-26T05:45:00.194Z,5
2018-09-26T05:45:40.636Z,5
2018-09-26T05:46:21.018Z,5
2018-09-26T05:47:01.531Z,5
2018-09-26T05:47:41.853Z,5
2018-09-26T05:48:23.214Z,5
2018-09-26T05:49:03.645Z,5
2018-09-26T05:49:44.022Z,5
2018-09-26T05:50:24.462Z,5
2018-09-26T05:51:04.829Z,5
2018-09-26T05:51:45.301Z,10
2018-09-26T05:52:25.667Z,10
2018-09-26T05:53:06.132Z,10
2018-09-26T05:53:46.514Z,10
2018-09-26T05:54:26.842Z,10
2018-09-26T05:55:07.288Z,10
2018-09-26T05:55:47.683Z,10
2018-09-26T05:56:28.179Z,10
2018-09-26T05:57:08.520Z,15
2018-09-26T05:57:49.218Z,15
2018-09-26T05:58:29.702Z,15
2018-09-26T05:59:10.000Z,15
2018-09-26T05:59:50.569Z,15
2018-09-26T06:00:31.003Z,15
2018-09-26T06:01:11.411Z,15
2018-09-26T06:01:51.764Z,20
2018-09-26T06:02:32.233Z,20
2018-09-26T06:03:12.612Z,20
2018-09-26T06:03:53.049Z,20
2018-09-26T06:04:33.410Z,20
2018-09-26T06:05:13.805Z,20
2018-09-26T06:05:54.258Z,20
2018-09-26T06:06:34.686Z,25
2018-09-26T06:07:15.173Z,25
2018-09-26T06:07:55.516Z,25
2018-09-26T06:08:35.910Z,25
2018-09-26T06:09:16.515Z,25
2018-09-26T06:09:57.790Z,25
2018-09-26T06:10:38.037Z,25
2018-09-26T06:11:19.143Z,25
2018-09-26T06:12:00.273Z,25
2018-09-26T06:12:40.852Z,25
2018-09-26T06:13:21.776Z,30
2018-09-26T06:14:01.740Z,30
2018-09-26T06:14:42.946Z,30
2018-09-26T06:15:23.796Z,30
2018-09-26T06:16:03.681Z,30
2018-09-26T06:16:44.232Z,30
2018-09-26T06:17:24.653Z,30
2018-09-26T06:18:05.124Z,30
2018-09-26T06:18:45.435Z,30
2018-09-26T06:19:25.922Z,30
2018-09-26T06:20:06.425Z,35
2018-09-26T06:20:47.568Z,35
2018-09-26T06:21:28.019Z,40
2018-09-26T06:22:08.509Z,40
2018-09-26T06:22:48.879Z,40
2018-09-26T06:23:29.277Z,45
2018-09-26T06:24:09.648Z,50
2018-09-26T06:24:50.263Z,50
2018-09-26T06:25:30.527Z,55
2018-09-26T06:26:11.076Z,60
2018-09-26T06:26:51.506Z,60
2018-09-26T06:27:31.896Z,65
2018-09-26T06:28:12.401Z,70
2018-09-26T06:28:52.835Z,75
2018-09-26T06:29:33.186Z,75
2018-09-26T06:30:17.623Z,85
2018-09-26T06:31:35.205Z,105
2018-09-26T06:32:15.677Z,100
2018-09-26T06:32:56.268Z,100
2018-09-26T06:33:36.835Z,100
2018-09-26T06:34:17.908Z,110
2018-09-26T06:34:58.414Z,125
2018-09-26T06:35:38.489Z,130
2018-09-26T06:36:19.888Z,135
2018-09-26T06:37:00.187Z,125
2018-09-26T06:37:41.081Z,100
2018-09-26T06:38:21.559Z,80
2018-09-26T06:39:02.889Z,70
2018-09-26T06:39:43.378Z,65
2018-09-26T06:40:24.228Z,60
2018-09-26T06:41:05.040Z,60
2018-09-26T06:41:46.413Z,60
2018-09-26T06:42:26.841Z,60
2018-09-26T06:43:07.473Z,65
2018-09-26T06:43:48.832Z,65
2018-09-26T06:44:29.393Z,70
2018-09-26T06:45:09.990Z,70
2018-09-26T06:45:50.877Z,70
2018-09-26T06:46:31.513Z,65
2018-09-26T06:47:12.269Z,65
2018-09-26T06:47:52.772Z,65
2018-09-26T06:48:33.539Z,65
2018-09-26T06:49:13.928Z,60
2018-09-26T06:49:54.407Z,55
2018-09-26T06:50:34.828Z,55
2018-09-26T06:51:15.278Z,50
2018-09-26T06:51:55.722Z,50
2018-09-26T06:52:39.118Z,50
2018-09-26T06:53:19.639Z,55
2018-09-26T06:54:00.096Z,55
2018-09-26T06:54:40.481Z,55
2018-09-26T06:55:20.936Z,55
2018-09-26T06:56:01.398Z,50
2018-09-26T06:56:42.406Z,45
2018-09-26T06:57:25.131Z,45
2018-09-26T06:59:56.574Z,45
2018-09-26T07:00:50.399Z,45
2018-09-26T07:01:48.424Z,45
2018-09-26T07:02:42.731Z,45
2018-09-26T07:10:41.086Z,45
2018-09-26T07:11:35.885Z,45
2018-09-26T07:15:23.504Z,50
2018-09-26T07:16:34.402Z,55
2018-09-26T07:19:22.418Z,60
2018-09-26T07:20:03.375Z,65
2018-09-26T07:20:43.932Z,60
2018-09-26T07:21:24.333Z,65
2018-09-26T07:22:05.749Z,65
2018-09-26T07:22:45.892Z,65
2018-09-26T07:23:26.903Z,65
2018-09-26T07:24:07.404Z,70
2018-09-26T07:24:47.746Z,70
2018-09-26T07:25:28.153Z,70
2018-09-26T07:26:08.579Z,70
2018-09-26T07:26:48.945Z,70
2018-09-26T07:27:29.448Z,75
2018-09-26T07:28:09.929Z,80
2018-09-26T07:28:50.343Z,85
2018-09-26T07:29:30.706Z,85
2018-09-26T07:30:11.196Z,90
2018-09-26T07:30:51.607Z,95
2018-09-26T07:31:32.055Z,95
2018-09-26T07:32:12.458Z,90
2018-09-26T07:32:52.885Z,90
2018-09-26T07:33:33.238Z,90
2018-09-26T07:34:13.756Z,90
2018-09-26T07:34:56.204Z,95
2018-09-26T07:35:36.631Z,95
2018-09-26T07:36:17.020Z,95
2018-09-26T07:36:57.372Z,95
2018-09-26T07:37:37.912Z,95
2018-09-26T07:38:18.354Z,95
2018-09-26T07:38:58.731Z,95
2018-09-26T07:39:39.751Z,95
2018-09-26T07:40:20.262Z,95
2018-09-26T07:41:00.689Z,95
2018-09-26T07:41:42.440Z,95
2018-09-26T07:42:23.174Z,95
2018-09-26T07:43:06.205Z,90
2018-09-26T07:43:46.218Z,90
2018-09-26T07:44:26.662Z,90
2018-09-26T07:45:07.112Z,90
2018-09-26T07:45:47.562Z,85
2018-09-26T07:46:27.945Z,85
2018-09-26T07:47:08.465Z,85
2018-09-26T07:47:51.097Z,85
2018-09-26T07:48:33.072Z,85
2018-09-26T07:49:15.010Z,80
2018-09-26T07:49:55.326Z,80
2018-09-26T07:50:35.929Z,80
2018-09-26T07:51:16.377Z,80
2018-09-26T07:51:56.839Z,80
2018-09-26T07:52:37.536Z,80
2018-09-26T07:53:18.015Z,75
2018-09-26T07:53:59.206Z,80
2018-09-26T07:54:39.800Z,80
2018-09-26T07:55:20.105Z,80
2018-09-26T07:56:00.628Z,80
2018-09-26T07:56:41.071Z,75
2018-09-26T07:57:21.486Z,80
2018-09-26T07:58:02.010Z,80
2018-09-26T08:02:25.493Z,85
2018-09-26T08:03:05.980Z,85
2018-09-26T08:03:46.447Z,85
2018-09-26T08:04:26.774Z,85
2018-09-26T08:05:08.601Z,85
2018-09-26T08:05:49.880Z,85
2018-09-26T08:06:30.241Z,85
2018-09-26T08:07:10.785Z,85
2018-09-26T08:07:51.330Z,85
2018-09-26T08:08:32.598Z,85
2018-09-26T08:09:12.226Z,85
2018-09-26T08:09:52.714Z,85
2018-09-26T08:10:33.168Z,85
2018-09-26T08:11:13.689Z,85
2018-09-26T08:11:55.508Z,85
2018-09-26T08:12:36.783Z,85
2018-09-26T08:13:18.085Z,85
2018-09-26T08:13:58.563Z,85
2018-09-26T08:14:39.069Z,85
2018-09-26T08:15:19.408Z,85
2018-09-26T08:15:59.868Z,85
2018-09-26T08:16:40.278Z,85
2018-09-26T08:17:20.724Z,80
2018-09-26T08:18:01.131Z,80
2018-09-26T08:18:42.321Z,80
2018-09-26T08:19:22.495Z,80
2018-09-26T08:20:02.918Z,80
2018-09-26T08:20:43.639Z,85
2018-09-26T08:21:24.087Z,85
2018-09-26T08:22:04.314Z,85
2018-09-26T08:22:44.750Z,80
2018-09-26T08:23:25.097Z,80
2018-09-26T08:24:05.614Z,80
2018-09-26T08:24:46.024Z,80
2018-09-26T08:25:26.478Z,85
2018-09-26T08:26:06.922Z,85
2018-09-26T08:26:47.278Z,85
2018-09-26T08:27:27.748Z,85
2018-09-26T08:28:12.282Z,85
2018-09-26T08:28:51.291Z,85
2018-09-26T08:29:31.753Z,90
2018-09-26T08:30:12.149Z,90
2018-09-26T08:30:52.643Z,85
2018-09-26T08:31:33.045Z,85
2018-09-26T08:32:13.558Z,85
2018-09-26T08:33:10.829Z,85
2018-09-26T08:37:52.358Z,80
2018-09-26T08:38:33.062Z,80
2018-09-26T08:39:13.447Z,80
2018-09-26T08:39:53.875Z,80
2018-09-26T08:40:34.338Z,80
2018-09-26T08:41:14.908Z,80
2018-09-26T08:41:55.637Z,80
2018-09-26T08:42:36.068Z,75
2018-09-26T08:43:16.509Z,75
2018-09-26T08:43:57.321Z,70
2018-09-26T08:44:37.678Z,70
2018-09-26T08:45:18.207Z,70
2018-09-26T08:45:58.651Z,70
2018-09-26T08:46:39.175Z,65
2018-09-26T08:47:19.573Z,65
2018-09-26T08:48:00.160Z,65
2018-09-26T08:50:43.951Z,60
2018-09-26T08:51:24.357Z,60
2018-09-26T08:52:04.939Z,60
2018-09-26T08:52:45.338Z,65
2018-09-26T08:53:25.758Z,70
2018-09-26T08:54:06.729Z,70
2018-09-26T08:54:50.737Z,70
2018-09-26T08:55:31.367Z,70
2018-09-26T08:56:12.418Z,70
2018-09-26T08:56:52.793Z,75
2018-09-26T08:57:33.157Z,75
2018-09-26T08:58:13.759Z,75
2018-09-26T08:58:54.446Z,75
2018-09-26T08:59:34.798Z,75
2018-09-26T09:00:15.175Z,75
2018-09-26T09:00:55.591Z,75
2018-09-26T09:01:36.189Z,75
2018-09-26T09:02:17.462Z,75
2018-09-26T09:02:58.663Z,75
2018-09-26T09:03:39.191Z,75
2018-09-26T09:04:19.867Z,75
2018-09-26T09:05:00.263Z,75
2018-09-26T09:05:40.697Z,75
2018-09-26T09:06:22.267Z,75
2018-09-26T09:07:02.544Z,75
2018-09-26T09:07:42.952Z,80
2018-09-26T09:08:23.625Z,75
2018-09-26T09:09:04.768Z,75
2018-09-26T09:09:45.155Z,75
2018-09-26T09:10:26.336Z,75
2018-09-26T09:11:06.749Z,75
2018-09-26T09:11:47.285Z,75
2018-09-26T09:12:27.574Z,75
2018-09-26T09:13:08.132Z,75
2018-09-26T09:13:48.527Z,75
2018-09-26T09:14:29.019Z,75
2018-09-26T09:15:09.375Z,75
2018-09-26T09:15:49.772Z,75
2018-09-26T09:16:30.176Z,75
2018-09-26T09:17:10.589Z,75
2018-09-26T09:17:51.140Z,75
2018-09-26T09:18:31.448Z,75
2018-09-26T09:19:11.867Z,75
2018-09-26T09:19:52.268Z,75
2018-09-26T09:20:32.670Z,70
2018-09-26T09:21:13.110Z,75
2018-09-26T09:21:53.503Z,75
2018-09-26T09:22:33.928Z,75
2018-09-26T09:23:14.395Z,75
2018-09-26T09:23:54.929Z,75
2018-09-26T09:24:35.381Z,75
2018-09-26T09:25:15.740Z,75
2018-09-26T09:25:56.218Z,75
2018-09-26T09:26:36.665Z,75
2018-09-26T09:27:17.079Z,75
2018-09-26T09:27:57.409Z,75
2018-09-26T09:28:37.834Z,75
2018-09-26T09:29:18.267Z,75
2018-09-26T09:29:58.741Z,75
2018-09-26T09:30:39.192Z,75
2018-09-26T09:31:19.662Z,80
2018-09-26T09:32:00.088Z,75
2018-09-26T09:32:40.438Z,75
2018-09-26T09:33:20.891Z,80
2018-09-26T09:34:01.317Z,75
2018-09-26T09:34:41.772Z,75
2018-09-26T09:35:22.119Z,75
2018-09-26T09:36:02.588Z,75
2018-09-26T09:36:43.044Z,75
2018-09-26T09:37:23.673Z,70
2018-09-26T09:38:04.128Z,65
2018-09-26T09:38:44.581Z,65
2018-09-26T09:39:24.972Z,70
2018-09-26T09:40:05.426Z,75
2018-09-26T09:40:45.949Z,75
2018-09-26T09:41:26.361Z,75
2018-09-26T09:42:06.806Z,75
2018-09-26T09:42:47.606Z,75
2018-09-26T09:43:28.210Z,80
2018-09-26T09:44:08.737Z,80
2018-09-26T09:44:49.829Z,80
2018-09-26T09:45:32.730Z,80
2018-09-26T09:46:12.971Z,80
2018-09-26T09:46:53.613Z,80
2018-09-26T09:47:34.023Z,80
2018-09-26T09:48:14.402Z,80
2018-09-26T09:48:54.813Z,80
2018-09-26T09:49:35.199Z,85
2018-09-26T09:50:15.668Z,85
2018-09-26T09:50:56.043Z,85
2018-09-26T09:51:36.560Z,85
2018-09-26T09:52:17.195Z,85
2018-09-26T09:52:57.850Z,85
2018-09-26T09:53:38.228Z,85
2018-09-26T09:54:18.703Z,85
2018-09-26T09:54:59.086Z,85
2018-09-26T09:55:39.525Z,85
2018-09-26T09:56:20.267Z,85
2018-09-26T09:57:00.766Z,85
2018-09-26T09:57:41.357Z,85
2018-09-26T09:58:21.788Z,85
2018-09-26T09:59:02.400Z,85
2018-09-26T09:59:42.927Z,80
2018-09-26T10:00:24.367Z,80
2018-09-26T10:01:06.179Z,80
2018-09-26T10:01:47.196Z,80
2018-09-26T10:02:27.828Z,80
2018-09-26T10:03:08.582Z,80
2018-09-26T10:03:49.894Z,80
2018-09-26T10:04:36.559Z,80
2018-09-26T10:05:16.981Z,80
2018-09-26T10:05:57.298Z,80
2018-09-26T10:06:37.770Z,80
2018-09-26T10:07:18.224Z,80
2018-09-26T10:07:58.605Z,80
2018-09-26T10:08:39.678Z,75
2018-09-26T10:09:20.236Z,75
2018-09-26T10:10:00.459Z,75
2018-09-26T10:10:41.054Z,75
2018-09-26T10:11:21.386Z,75
2018-09-26T10:12:01.826Z,75
2018-09-26T10:12:42.470Z,75
2018-09-26T10:13:22.928Z,70
2018-09-26T10:14:03.232Z,70
2018-09-26T10:14:43.714Z,65
2018-09-26T10:15:24.149Z,65
2018-09-26T10:16:04.517Z,55
2018-09-26T10:16:44.988Z,60
2018-09-26T10:17:25.344Z,60
2018-09-26T10:18:07.261Z,60
2018-09-26T10:18:47.793Z,60
2018-09-26T10:19:28.368Z,60
2018-09-26T10:20:08.793Z,60
2018-09-26T10:20:49.311Z,55
2018-09-26T10:21:29.711Z,55
2018-09-26T10:22:10.137Z,50
2018-09-26T10:22:50.479Z,50
2018-09-26T10:26:00.403Z,65
2018-09-26T10:26:55.606Z,70
2018-09-26T10:27:41.267Z,70
2018-09-26T10:28:21.675Z,70
2018-09-26T11:07:25.486Z,75
2018-09-26T11:08:20.034Z,75
2018-09-26T11:09:15.139Z,75
2018-09-26T11:10:00.689Z,75
2018-09-26T11:10:41.195Z,75
2018-09-26T11:11:24.466Z,75
2018-09-26T11:12:08.938Z,75
2018-09-26T11:12:48.600Z,75
2018-09-26T11:13:29.131Z,70
2018-09-26T11:14:10.031Z,70
2018-09-26T11:14:50.459Z,70
2018-09-26T11:15:30.935Z,70
2018-09-26T11:16:11.465Z,70
2018-09-26T11:16:51.828Z,70
2018-09-26T11:20:34.583Z,65
2018-09-26T11:21:15.314Z,65
2018-09-26T11:21:55.942Z,65
2018-09-26T11:22:36.968Z,65
2018-09-26T11:23:17.998Z,65
2018-09-26T11:23:59.773Z,65
2018-09-26T11:24:39.564Z,65
2018-09-26T11:25:20.238Z,65
2018-09-26T11:26:00.867Z,65
2018-09-26T11:26:41.414Z,65
2018-09-26T11:27:21.782Z,65
2018-09-26T11:28:02.182Z,65
2018-09-26T11:28:43.359Z,65
2018-09-26T11:29:23.896Z,65
2018-09-26T11:30:05.101Z,65
2018-09-26T11:30:44.811Z,65
2018-09-26T11:31:25.260Z,65
2018-09-26T11:32:05.935Z,65
2018-09-26T11:32:46.760Z,65
2018-09-26T11:33:26.941Z,65
2018-09-26T11:34:07.747Z,65
2018-09-26T11:34:48.280Z,60
2018-09-26T11:35:28.672Z,60
2018-09-26T11:36:09.444Z,60
2018-09-26T11:36:49.651Z,60
2018-09-26T11:39:26.020Z,60
2018-09-26T11:40:06.411Z,60
2018-09-26T11:40:46.829Z,60
2018-09-26T11:41:27.226Z,60
2018-09-26T11:42:07.947Z,60
2018-09-26T11:45:01.648Z,60
2018-09-26T11:46:03.504Z,55
2018-09-26T11:46:59.916Z,55
2018-09-26T11:47:54.570Z,55
2018-09-26T11:48:47.429Z,55
2018-09-26T11:49:29.272Z,55
2018-09-26T11:50:09.808Z,55
2018-09-26T11:50:50.170Z,60
2018-09-26T11:51:30.685Z,55
2018-09-26T11:52:12.561Z,55
2018-09-26T11:52:52.595Z,55
2018-09-26T11:53:34.390Z,60
2018-09-26T11:54:14.659Z,60
2018-09-26T11:54:55.115Z,60
2018-09-26T11:55:35.596Z,60
2018-09-26T11:56:16.125Z,60
2018-09-26T11:56:57.132Z,60
2018-09-26T11:57:37.390Z,60
2018-09-26T11:58:17.798Z,60
2018-09-26T11:58:58.314Z,60
2018-09-26T11:59:39.241Z,60
2018-09-26T12:00:20.218Z,60
2018-09-26T12:01:00.936Z,60
2018-09-26T12:01:41.256Z,60
2018-09-26T12:02:21.912Z,60
2018-09-26T12:03:02.130Z,60
2018-09-26T12:03:42.565Z,60
2018-09-26T12:04:23.048Z,60
2018-09-26T12:05:03.884Z,55
2018-09-26T12:05:44.371Z,60
2018-09-26T12:06:24.820Z,60
2018-09-26T12:07:05.876Z,55
2018-09-26T12:11:54.878Z,60
2018-09-26T12:12:35.201Z,60
2018-09-26T12:13:15.822Z,60
2018-09-26T12:13:56.855Z,60
2018-09-26T12:14:37.883Z,60
2018-09-26T12:15:18.392Z,60
2018-09-26T12:15:58.801Z,60
2018-09-26T12:16:39.622Z,55
2018-09-26T12:17:20.271Z,55
2018-09-26T12:18:01.050Z,55
2018-09-26T12:18:41.437Z,55
2018-09-26T12:19:22.780Z,55
2018-09-26T12:20:03.226Z,55
2018-09-26T12:20:43.645Z,55
2018-09-26T12:21:30.445Z,55